Terminal Aerodrome Forecast
Issued by NWS

Home | Current Version | Previous Version | Text Only | Print | Product List | Glossary On
Versions: 1 2 3 4 5 6 7 8 9 10 11 12 13 14 15 16 17 18 19 20 21 22 23 24 25 26 27 28 29 30 31 32
823
FTUS46 KLOX 271138
TAFLAX
TAF
KLAX 271138Z 2712/2818 VRB03KT P6SM BKN011
     FM271800 23006KT P6SM BKN020
     FM272000 25012KT P6SM FEW025
     FM280400 25006KT P6SM BKN015
     FM280800 VRB03KT P6SM OVC015
     FM281700 25006KT P6SM BKN022=

USA.gov is the U.S. government's official web portal to all federal, state and local government web resources and services.